Aeroporto :
LOGIN :

Iscrizione | Disclaimer

   EN    FR    IT 

 










Sommario :    VFR   VFR Marginale   IFR   IFR Intensivo   IFR Molto Intensivo
Visibilità : 
Base nubi : 
>= 8 km
>= 3000ft
5 / 8 km
1000 / 3000 ft
1500m / 5 km
500 / 1000 ft
800 / 1500m
200 / 500 ft
< 800m
< 200 ft
Simboli :   Temporali  Nebbia  Neve Forte  Precipitazioni Forti  Vento > 20 kt
SIGMETs :   Varie  Temporali  Ghiacco  Turbolenza  Onda orograficha  Ceneri Vulcaniche






- Altitudine del aeroporto : 789 ft
- Codice IATA : BZO


LIPB - Bolzano

ULTIMO METAR :
  • 251450Z VRB01KT 5000 BR BKN045 OVC080 09/05 Q1007

METARs OBSOLETI :
  • 251350Z VRB02KT 6000 BKN047 09/04 Q1007
  • 251250Z VRB03KT 6000 BKN047 09/04 Q1008

TAF TAF LIPB
Valido dal 25 a 12 ore il 26 a 12 ore UTC


251100Z 2512/2612 VRB04KT 8000 BKN040
TEMPO 2521/2606 4000 SHRA
BECMG 2609/2611 35018G32KT



MetMap, La meteo Aeronautica in un colpo d'occhio ! - Copyright ORBIFLY Dicembre 2007 - Disclaimer

ORBIFLY MET'MAP TEAM :

Programmazione e sviluppo : Alexandra Zaïnal
Concezione : Baudouin d'Aumeries
Aiuto per la programmazione : Marc-Olivier Méhu
Supporto tecnico e logistico : Manuel Goepfert
Aiuto per la traduzione : Arnaldo La Scala

Contatto : metmap@orbifly.com




FONTI E CREDITI :

   NOAA